createdAt,value
2017-10-23T00:02:00.413Z,97923.92
2017-10-23T00:04:29.859Z,97926.97
2017-10-23T00:06:58.217Z,97923.58
2017-10-23T00:09:27.337Z,97922.29
2017-10-23T00:11:55.695Z,97926.63
2017-10-23T00:14:24.833Z,97922.38
2017-10-23T00:16:53.198Z,97928.78
2017-10-23T00:19:21.552Z,97938.23
2017-10-23T00:21:49.920Z,97931.79
2017-10-23T00:24:18.281Z,97929.27
2017-10-23T00:26:46.650Z,97932.59
2017-10-23T00:29:15.013Z,97936.06
2017-10-23T00:31:43.380Z,97936.52
2017-10-23T00:34:11.732Z,97936.04
2017-10-23T00:36:40.105Z,97934.73
2017-10-23T00:39:08.453Z,97943.41
2017-10-23T00:41:36.810Z,97942.97
2017-10-23T00:44:05.173Z,97948.08
2017-10-23T00:46:33.541Z,97948.88
2017-10-23T00:49:01.897Z,97953.56
2017-10-23T00:51:30.270Z,97959.48
2017-10-23T00:53:58.634Z,97957.06
2017-10-23T00:56:27.009Z,97962.48
2017-10-23T00:58:55.385Z,97962.95
2017-10-23T01:01:23.741Z,97953.10
2017-10-23T01:03:52.097Z,97953.50
2017-10-23T01:06:20.446Z,97957.36
2017-10-23T01:08:48.801Z,97964.98
2017-10-23T01:11:17.157Z,97962.88
2017-10-23T01:13:45.516Z,97964.64
2017-10-23T01:16:13.880Z,97969.30
2017-10-23T01:18:42.236Z,97958.64
2017-10-23T01:21:10.585Z,97965.13
2017-10-23T01:23:39.356Z,97960.44
2017-10-23T01:26:07.720Z,97965.17
2017-10-23T01:28:36.137Z,97957.47
2017-10-23T01:31:05.267Z,97960.89
2017-10-23T01:33:33.631Z,97955.34
2017-10-23T01:36:02.775Z,97954.87
2017-10-23T01:38:31.135Z,97949.33
2017-10-23T01:40:59.493Z,97951.41
2017-10-23T01:43:27.849Z,97952.28
2017-10-23T01:45:56.201Z,97958.25
2017-10-23T01:48:24.553Z,97953.96
2017-10-23T01:50:52.918Z,97952.69
2017-10-23T01:53:21.269Z,97961.70
2017-10-23T01:55:50.399Z,97965.05
2017-10-23T01:58:18.745Z,97962.55
2017-10-23T02:00:47.094Z,97960.87
2017-10-23T02:03:15.460Z,97962.57
2017-10-23T02:05:43.815Z,97971.08
2017-10-23T02:08:12.165Z,97966.88
2017-10-23T02:10:40.525Z,97972.87
2017-10-23T02:13:09.642Z,97975.84
2017-10-23T02:15:37.994Z,97975.86
2017-10-23T02:18:07.108Z,97977.56
2017-10-23T02:20:35.461Z,97979.66
2017-10-23T02:23:03.817Z,97976.67
2017-10-23T02:25:32.168Z,97983.09
2017-10-23T02:28:00.524Z,97973.33
2017-10-23T02:30:28.885Z,97976.72
2017-10-23T02:32:57.269Z,97973.33
2017-10-23T02:35:25.622Z,97974.19
2017-10-23T02:37:53.988Z,97969.89
2017-10-23T02:40:22.348Z,97969.45
2017-10-23T02:42:50.707Z,97973.75
2017-10-23T02:45:19.060Z,97961.34
2017-10-23T02:47:48.182Z,97971.65
2017-10-23T02:50:16.721Z,97968.63
2017-10-23T02:52:45.848Z,97967.34
2017-10-23T02:55:14.208Z,97971.14
2017-10-23T02:57:42.565Z,97971.64
2017-10-23T03:00:10.913Z,97965.67
2017-10-23T03:02:39.262Z,97970.78
2017-10-23T03:05:07.611Z,97971.61
2017-10-23T03:07:36.728Z,97972.44
2017-10-23T03:10:05.090Z,97975.83
2017-10-23T03:12:34.261Z,97974.92
2017-10-23T03:15:02.628Z,97980.05
2017-10-23T03:17:30.988Z,97968.54
2017-10-23T03:20:00.838Z,97979.14
2017-10-23T03:22:29.194Z,97985.98
2017-10-23T03:24:57.555Z,97988.15
2017-10-23T03:27:25.909Z,97986.41
2017-10-23T03:29:54.274Z,97990.20
2017-10-23T03:32:22.624Z,97988.14
2017-10-23T03:34:50.983Z,97991.89
2017-10-23T03:37:19.345Z,97990.17
2017-10-23T03:39:47.702Z,97989.34
2017-10-23T03:42:16.069Z,97996.14
2017-10-23T03:44:44.445Z,97996.16
2017-10-23T03:47:13.573Z,97995.71
2017-10-23T03:49:41.949Z,98001.67
2017-10-23T03:52:10.326Z,97997.50
2017-10-23T03:54:38.681Z,97996.97
2017-10-23T03:57:07.047Z,97993.61
2017-10-23T03:59:35.438Z,98005.56
2017-10-23T04:02:03.797Z,98007.21
2017-10-23T04:04:32.931Z,98010.27
2017-10-23T04:07:01.320Z,98011.94
2017-10-23T04:09:30.488Z,98020.47
2017-10-23T04:11:58.854Z,98014.92
2017-10-23T04:14:27.221Z,98021.81
2017-10-23T04:16:55.578Z,98019.73
2017-10-23T04:19:23.929Z,98021.84
2017-10-23T04:21:52.291Z,98026.53
2017-10-23T04:24:20.649Z,98021.83
2017-10-23T04:26:49.771Z,98035.92
2017-10-23T04:29:18.123Z,98027.82
2017-10-23T04:31:47.254Z,98032.17
2017-10-23T04:34:15.601Z,98031.31
2017-10-23T04:36:43.956Z,98028.30
2017-10-23T04:39:13.088Z,98022.76
2017-10-23T04:41:41.436Z,98025.33
2017-10-23T04:44:09.800Z,98019.80
2017-10-23T04:46:38.152Z,98028.75
2017-10-23T04:49:06.509Z,98021.95
2017-10-23T04:51:34.925Z,98020.25
2017-10-23T04:54:03.282Z,98021.55
2017-10-23T04:56:31.628Z,98023.64
2017-10-23T04:58:59.997Z,98025.38
2017-10-23T05:01:28.357Z,98029.61
2017-10-23T05:03:56.932Z,98027.48
2017-10-23T05:06:25.296Z,98029.61
2017-10-23T05:08:53.658Z,98032.16
2017-10-23T05:11:22.022Z,98027.91
2017-10-23T05:13:50.374Z,98039.00
2017-10-23T05:16:18.724Z,98036.45
2017-10-23T05:18:47.096Z,98030.89
2017-10-23T05:21:15.586Z,98034.33
2017-10-23T05:23:43.941Z,98031.77
2017-10-23T05:26:12.296Z,98039.45
2017-10-23T05:28:40.683Z,98040.71
2017-10-23T05:31:09.045Z,98027.08
2017-10-23T05:33:37.396Z,98047.54
2017-10-23T05:36:06.505Z,98047.52
2017-10-23T05:38:34.852Z,98056.50
2017-10-23T05:41:03.215Z,98053.91
2017-10-23T05:43:31.601Z,98058.61
2017-10-23T05:45:59.945Z,98065.42
2017-10-23T05:48:28.295Z,98061.19
2017-10-23T05:50:56.661Z,98064.59
2017-10-23T05:53:25.788Z,98070.11
2017-10-23T05:55:54.145Z,98072.25
2017-10-23T05:58:22.508Z,98073.53
2017-10-23T06:00:50.866Z,98075.23
2017-10-23T06:03:19.215Z,98073.95
2017-10-23T06:05:47.581Z,98076.49
2017-10-23T06:08:15.944Z,98081.58
2017-10-23T06:10:44.301Z,98072.16
2017-10-23T06:13:13.429Z,98075.16
2017-10-23T06:15:41.812Z,98066.61
2017-10-23T06:18:10.182Z,98065.30
2017-10-23T06:20:38.572Z,98066.18
2017-10-23T06:23:06.942Z,98074.27
2017-10-23T06:25:35.293Z,98079.43
2017-10-23T06:28:03.664Z,98078.09
2017-10-23T06:30:32.019Z,98080.67
2017-10-23T06:33:00.406Z,98084.05
2017-10-23T06:35:28.785Z,98067.42
2017-10-23T06:37:57.490Z,98086.17
2017-10-23T06:40:25.853Z,98086.11
2017-10-23T06:42:54.212Z,98092.53
2017-10-23T06:45:22.586Z,98091.68
2017-10-23T06:47:50.954Z,98097.28
2017-10-23T06:50:20.510Z,98098.09
2017-10-23T06:52:48.885Z,98095.53
2017-10-23T06:55:18.018Z,98092.14
2017-10-23T06:57:46.392Z,98100.17
2017-10-23T07:00:14.777Z,98098.97
2017-10-23T07:02:43.160Z,98103.62
2017-10-23T07:05:11.537Z,98107.04
2017-10-23T07:07:39.901Z,98111.32
2017-10-23T07:10:08.270Z,98118.47
2017-10-23T07:12:36.641Z,98118.48
2017-10-23T07:15:04.997Z,98129.16
2017-10-23T07:17:33.373Z,98131.25
2017-10-23T07:20:01.749Z,98129.52
2017-10-23T07:22:30.116Z,98129.45
2017-10-23T07:24:58.490Z,98124.28
2017-10-23T07:27:26.850Z,98130.30
2017-10-23T07:29:55.219Z,98133.28
2017-10-23T07:32:24.265Z,98139.23
2017-10-23T07:34:52.654Z,98126.70
2017-10-23T07:37:21.782Z,98127.13
2017-10-23T07:39:50.158Z,98130.16
2017-10-23T07:42:18.519Z,98132.27
2017-10-23T07:44:46.882Z,98134.36
2017-10-23T07:47:15.296Z,98141.51
2017-10-23T07:49:43.729Z,98142.34
2017-10-23T07:52:12.857Z,98136.73
2017-10-23T07:54:41.220Z,98137.09
2017-10-23T07:57:09.598Z,98139.31
2017-10-23T07:59:37.966Z,98139.89
2017-10-23T08:02:06.333Z,98136.33
2017-10-23T08:04:34.719Z,98138.03
2017-10-23T08:07:03.851Z,98139.83
2017-10-23T08:09:32.214Z,98140.59
2017-10-23T08:12:00.897Z,98142.88
2017-10-23T08:14:29.257Z,98148.53
2017-10-23T08:16:57.622Z,98154.15
2017-10-23T08:19:26.786Z,98156.76
2017-10-23T08:21:55.164Z,98158.51
2017-10-23T08:24:23.526Z,98164.45
2017-10-23T08:26:51.886Z,98168.35
2017-10-23T08:29:20.252Z,98164.39
2017-10-23T08:31:49.385Z,98162.25
2017-10-23T08:34:17.760Z,98162.75
2017-10-23T08:36:47.029Z,98160.61
2017-10-23T08:39:15.401Z,98158.02
2017-10-23T08:41:43.762Z,98152.44
2017-10-23T08:44:12.137Z,98160.57
2017-10-23T08:46:41.881Z,98154.96
2017-10-23T08:49:10.245Z,98159.33
2017-10-23T08:51:38.609Z,98168.74
2017-10-23T08:54:06.978Z,98161.86
2017-10-23T08:56:35.354Z,98161.45
2017-10-23T08:59:03.730Z,98162.63
2017-10-23T09:01:32.108Z,98164.69
2017-10-23T09:04:01.277Z,98172.41
2017-10-23T09:06:29.634Z,98161.20
2017-10-23T09:08:57.989Z,98161.18
2017-10-23T09:11:27.818Z,98167.89
2017-10-23T09:13:56.195Z,98164.45
2017-10-23T09:16:24.566Z,98164.27
2017-10-23T09:18:52.941Z,98170.98
2017-10-23T09:21:21.313Z,98174.82
2017-10-23T09:23:50.448Z,98175.45
2017-10-23T09:26:18.805Z,98173.33
2017-10-23T09:28:47.156Z,98174.19
2017-10-23T09:31:16.290Z,98175.88
2017-10-23T09:33:44.651Z,98181.59
2017-10-23T09:36:13.019Z,98183.92
2017-10-23T09:38:41.390Z,98185.58
2017-10-23T09:41:09.765Z,98185.20
2017-10-23T09:43:38.915Z,98187.75
2017-10-23T09:46:07.302Z,98182.66
2017-10-23T09:48:35.668Z,98182.67
2017-10-23T09:51:04.047Z,98191.81
2017-10-23T09:53:32.404Z,98188.42
2017-10-23T09:56:00.773Z,98184.09
2017-10-23T09:58:29.149Z,98197.69
2017-10-23T10:00:57.606Z,98192.55
2017-10-23T10:03:25.980Z,98188.72
2017-10-23T10:05:54.340Z,98189.91
2017-10-23T10:08:23.809Z,98182.16
2017-10-23T10:10:52.169Z,98187.23
2017-10-23T10:13:20.524Z,98179.95
2017-10-23T10:15:48.886Z,98181.30
2017-10-23T10:18:18.298Z,98186.37
2017-10-23T10:20:46.683Z,98185.86
2017-10-23T10:23:15.068Z,98194.48
2017-10-23T10:25:43.436Z,98199.55
2017-10-23T10:28:11.806Z,98202.61
2017-10-23T10:30:40.165Z,98205.16
2017-10-23T10:33:08.532Z,98205.16
2017-10-23T10:35:36.903Z,98200.91
2017-10-23T10:38:05.265Z,98205.69
2017-10-23T10:40:33.632Z,98209.97
2017-10-23T10:43:02.009Z,98211.98
2017-10-23T10:45:31.149Z,98209.83
2017-10-23T10:47:59.527Z,98212.05
2017-10-23T10:50:28.868Z,98221.00
2017-10-23T10:52:58.023Z,98212.31
2017-10-23T10:55:26.404Z,98211.85
2017-10-23T10:57:54.989Z,98217.06
2017-10-23T11:00:23.365Z,98215.75
2017-10-23T11:02:51.750Z,98219.11
2017-10-23T11:05:20.145Z,98219.54
2017-10-23T11:07:48.526Z,98219.92
2017-10-23T11:10:16.901Z,98223.81
2017-10-23T11:12:45.296Z,98218.08
2017-10-23T11:15:13.671Z,98214.64
2017-10-23T11:17:42.983Z,98215.44
2017-10-23T11:20:11.335Z,98214.46
2017-10-23T11:22:39.709Z,98218.22
2017-10-23T11:25:08.064Z,98215.69
2017-10-23T11:27:36.433Z,98214.27
2017-10-23T11:30:04.798Z,98213.91
2017-10-23T11:32:33.252Z,98212.08
2017-10-23T11:35:02.394Z,98209.93
2017-10-23T11:37:30.767Z,98207.59
2017-10-23T11:39:59.889Z,98205.88
2017-10-23T11:42:28.258Z,98213.28
2017-10-23T11:44:56.652Z,98212.57
2017-10-23T11:47:25.026Z,98216.37
2017-10-23T11:49:53.753Z,98215.42
2017-10-23T11:52:22.887Z,98217.63
2017-10-23T11:54:51.253Z,98217.36
2017-10-23T11:57:19.613Z,98214.73
2017-10-23T11:59:47.989Z,98217.78
2017-10-23T12:02:17.125Z,98226.28
2017-10-23T12:04:45.519Z,98219.45
2017-10-23T12:07:13.892Z,98223.08
2017-10-23T12:09:42.275Z,98220.84
2017-10-23T12:12:10.656Z,98232.42
2017-10-23T12:14:39.220Z,98221.52
2017-10-23T12:17:07.596Z,98219.92
2017-10-23T12:19:35.969Z,98218.86
2017-10-23T12:22:04.360Z,98218.81
2017-10-23T12:24:32.733Z,98218.00
2017-10-23T12:27:01.093Z,98221.03
2017-10-23T12:29:29.453Z,98212.52
2017-10-23T12:31:58.589Z,98215.36
2017-10-23T12:34:26.973Z,98217.42
2017-10-23T12:36:55.341Z,98221.97
2017-10-23T12:39:23.716Z,98220.28
2017-10-23T12:41:52.076Z,98219.81
2017-10-23T12:44:20.450Z,98219.35
2017-10-23T12:46:48.820Z,98219.28
2017-10-23T12:49:17.197Z,98222.95
2017-10-23T12:51:46.329Z,98223.52
2017-10-23T12:54:14.692Z,98221.14
2017-10-23T12:56:43.083Z,98225.84
2017-10-23T12:59:11.445Z,98224.98
2017-10-23T13:01:39.826Z,98220.21
2017-10-23T13:04:08.186Z,98211.75
2017-10-23T13:06:36.558Z,98215.98
2017-10-23T13:09:04.943Z,98218.19
2017-10-23T13:11:33.318Z,98213.08
2017-10-23T13:14:01.685Z,98211.14
2017-10-23T13:16:30.045Z,98215.52
2017-10-23T13:18:58.420Z,98221.17
2017-10-23T13:21:26.798Z,98217.70
2017-10-23T13:23:55.167Z,98212.06
2017-10-23T13:26:23.529Z,98209.97
2017-10-23T13:28:51.904Z,98210.25
2017-10-23T13:31:20.274Z,98219.11
2017-10-23T13:33:48.629Z,98218.34
2017-10-23T13:36:17.781Z,98217.86
2017-10-23T13:38:46.156Z,98226.58
2017-10-23T13:41:14.541Z,98225.16
2017-10-23T13:43:42.901Z,98227.10
2017-10-23T13:46:11.270Z,98235.73
2017-10-23T13:48:39.652Z,98238.42
2017-10-23T13:51:08.030Z,98242.25
2017-10-23T13:53:36.404Z,98241.41
2017-10-23T13:56:04.774Z,98246.55
2017-10-23T13:58:33.141Z,98254.73
2017-10-23T14:01:01.510Z,98253.80
2017-10-23T14:03:29.878Z,98259.25
2017-10-23T14:05:59.010Z,98263.59
2017-10-23T14:08:28.109Z,98263.58
2017-10-23T14:10:56.479Z,98264.46
2017-10-23T14:13:24.862Z,98265.21
2017-10-23T14:15:53.225Z,98265.98
2017-10-23T14:18:21.601Z,98273.81
2017-10-23T14:20:50.009Z,98272.58
2017-10-23T14:23:18.371Z,98271.28
2017-10-23T14:25:46.748Z,98282.02
2017-10-23T14:28:15.204Z,98276.42
2017-10-23T14:30:44.054Z,98279.84
2017-10-23T14:33:12.513Z,98278.15
2017-10-23T14:35:40.969Z,98278.53
2017-10-23T14:38:09.381Z,98278.90
2017-10-23T14:40:37.754Z,98276.61
2017-10-23T14:43:06.131Z,98276.09
2017-10-23T14:45:34.508Z,98277.03
2017-10-23T14:48:02.888Z,98283.53
2017-10-23T14:50:31.272Z,98291.81
2017-10-23T14:52:59.665Z,98286.64
2017-10-23T14:55:28.030Z,98284.52
2017-10-23T14:57:56.398Z,98287.89
2017-10-23T15:00:24.773Z,98285.27
2017-10-23T15:02:53.134Z,98284.00
2017-10-23T15:05:22.112Z,98285.12
2017-10-23T15:07:50.491Z,98282.06
2017-10-23T15:10:18.868Z,98282.45
2017-10-23T15:12:47.940Z,98280.23
2017-10-23T15:15:17.098Z,98286.23
2017-10-23T15:17:45.499Z,98288.25
2017-10-23T15:20:13.856Z,98295.45
2017-10-23T15:22:42.296Z,98296.58
2017-10-23T15:25:10.672Z,98293.45
2017-10-23T15:27:39.035Z,98293.48
2017-10-23T15:30:07.397Z,98294.23
2017-10-23T15:32:35.787Z,98299.88
2017-10-23T15:35:04.152Z,98310.92
2017-10-23T15:37:32.562Z,98311.69
2017-10-23T15:40:00.924Z,98307.33
2017-10-23T15:42:29.289Z,98312.90
2017-10-23T15:44:57.675Z,98313.08
2017-10-23T15:47:26.052Z,98316.83
2017-10-23T15:49:54.421Z,98313.27
2017-10-23T15:52:22.781Z,98309.76
2017-10-23T15:54:51.152Z,98312.95
2017-10-23T15:57:19.529Z,98309.05
2017-10-23T15:59:47.926Z,98317.75
2017-10-23T16:02:16.284Z,98318.67
2017-10-23T16:04:44.650Z,98318.19
2017-10-23T16:07:13.013Z,98319.80
2017-10-23T16:09:41.376Z,98326.69
2017-10-23T16:12:10.504Z,98327.56
2017-10-23T16:14:38.860Z,98328.23
2017-10-23T16:17:07.240Z,98328.53
2017-10-23T16:19:35.600Z,98326.76
2017-10-23T16:22:03.960Z,98330.69
2017-10-23T16:24:32.329Z,98329.81
2017-10-23T16:27:00.701Z,98327.68
2017-10-23T16:29:29.062Z,98333.67
2017-10-23T16:31:57.421Z,98336.30
2017-10-23T16:34:25.789Z,98335.84
2017-10-23T16:36:54.149Z,98338.00
2017-10-23T16:39:23.272Z,98348.17
2017-10-23T16:41:51.638Z,98348.05
2017-10-23T16:44:20.013Z,98355.22
2017-10-23T16:46:48.556Z,98359.72
2017-10-23T16:49:40.461Z,98355.83
2017-10-23T16:52:08.842Z,98360.84
2017-10-23T16:54:37.227Z,98355.17
2017-10-23T16:57:05.628Z,98359.95
2017-10-23T16:59:34.013Z,98362.05
2017-10-23T17:02:02.391Z,98362.94
2017-10-23T17:04:30.756Z,98364.24
2017-10-23T17:06:59.132Z,98371.48
2017-10-23T17:09:29.026Z,98378.31
2017-10-23T17:11:58.149Z,98377.84
2017-10-23T17:14:26.504Z,98385.14
2017-10-23T17:16:54.876Z,98388.14
2017-10-23T17:19:23.282Z,98391.55
2017-10-23T17:21:51.649Z,98397.73
2017-10-23T17:24:20.013Z,98402.56
2017-10-23T17:26:48.389Z,98408.31
2017-10-23T17:29:17.517Z,98412.91
2017-10-23T17:31:45.882Z,98413.79
2017-10-23T17:34:15.046Z,98413.94
2017-10-23T17:36:43.451Z,98415.13
2017-10-23T17:39:11.835Z,98415.48
2017-10-23T17:41:40.210Z,98421.92
2017-10-23T17:44:08.577Z,98422.78
2017-10-23T17:46:36.953Z,98422.36
2017-10-23T17:49:05.380Z,98421.17
2017-10-23T17:51:34.533Z,98420.67
2017-10-23T17:54:02.913Z,98428.36
2017-10-23T17:56:31.279Z,98424.92
2017-10-23T17:59:13.768Z,98431.81
2017-10-23T18:01:53.991Z,98436.67
2017-10-23T18:04:35.531Z,98434.89
2017-10-23T18:07:17.421Z,98438.31
2017-10-23T18:10:02.170Z,98446.87
2017-10-23T18:12:33.630Z,98446.98
2017-10-23T18:15:11.715Z,98450.42
2017-10-23T18:17:50.011Z,98452.97
2017-10-23T18:20:32.931Z,98456.55
2017-10-23T18:23:01.301Z,98447.50
2017-10-23T18:25:29.673Z,98449.19
2017-10-23T18:27:58.050Z,98446.20
2017-10-23T18:30:26.449Z,98446.36
2017-10-23T18:32:54.821Z,98453.72
2017-10-23T18:35:23.188Z,98455.05
2017-10-23T18:37:51.560Z,98451.64
2017-10-23T18:40:19.950Z,98455.48
2017-10-23T18:42:48.329Z,98468.37
2017-10-23T18:45:17.109Z,98463.23
2017-10-23T18:47:45.468Z,98471.49
2017-10-23T18:50:13.836Z,98468.13
2017-10-23T18:52:42.207Z,98472.83
2017-10-23T18:55:10.581Z,98474.08
2017-10-23T18:57:38.944Z,98477.94
2017-10-23T19:00:07.330Z,98473.78
2017-10-23T19:02:35.702Z,98471.58
2017-10-23T19:05:04.086Z,98481.39
2017-10-23T19:07:32.458Z,98475.36
2017-10-23T19:10:00.820Z,98476.63
2017-10-23T19:12:29.185Z,98488.62
2017-10-23T19:14:57.552Z,98489.09
2017-10-23T19:17:25.921Z,98492.05
2017-10-23T19:19:54.281Z,98494.20
2017-10-23T19:22:22.656Z,98493.32
2017-10-23T19:24:51.031Z,98496.33
2017-10-23T19:27:19.413Z,98492.50
2017-10-23T19:29:47.787Z,98498.87
2017-10-23T19:32:16.174Z,98500.13
2017-10-23T19:34:44.585Z,98508.70
2017-10-23T19:37:12.959Z,98506.11
2017-10-23T19:39:41.667Z,98504.38
2017-10-23T19:45:10.280Z,98505.59
2017-10-23T19:47:38.700Z,98507.78
2017-10-23T19:50:07.126Z,98504.38
2017-10-23T19:52:36.269Z,98502.22
2017-10-23T19:55:07.565Z,98500.51
2017-10-23T19:57:35.929Z,98495.81
2017-10-23T20:00:04.292Z,98506.05
2017-10-23T20:02:32.665Z,98508.59
2017-10-23T20:05:01.033Z,98509.86
2017-10-23T20:07:29.408Z,98516.24
2017-10-23T20:09:57.785Z,98523.08
2017-10-23T20:12:26.159Z,98518.35
2017-10-23T20:14:55.326Z,98526.95
2017-10-23T20:17:23.753Z,98527.41
2017-10-23T20:19:52.122Z,98527.82
2017-10-23T20:22:20.499Z,98532.49
2017-10-23T20:24:48.880Z,98530.37
2017-10-23T20:27:18.188Z,98532.05
2017-10-23T20:29:46.892Z,98535.08
2017-10-23T20:32:15.264Z,98532.49
2017-10-23T20:34:43.625Z,98540.22
2017-10-23T20:37:12.000Z,98544.51
2017-10-23T20:39:40.365Z,98546.08
2017-10-23T20:42:08.738Z,98551.63
2017-10-23T20:44:37.133Z,98548.23
2017-10-23T20:47:05.513Z,98549.06
2017-10-23T20:49:33.895Z,98546.08
2017-10-23T20:52:02.276Z,98556.34
2017-10-23T20:54:30.673Z,98556.35
2017-10-23T20:56:59.858Z,98555.91
2017-10-23T20:59:28.229Z,98555.47
2017-10-23T21:01:56.597Z,98555.48
2017-10-23T21:04:24.978Z,98554.66
2017-10-23T21:06:53.333Z,98553.37
2017-10-23T21:09:22.396Z,98563.23
2017-10-23T21:11:50.790Z,98565.38
2017-10-23T21:14:19.158Z,98572.22
2017-10-23T21:16:47.530Z,98572.22
2017-10-23T21:19:15.911Z,98575.09
2017-10-23T21:21:51.963Z,98579.88
2017-10-23T21:24:20.333Z,98578.59
2017-10-23T21:26:49.513Z,98581.98
2017-10-23T21:29:19.074Z,98588.00
2017-10-23T21:31:48.205Z,98592.69
2017-10-23T21:34:16.591Z,98592.18
2017-10-23T21:36:44.962Z,98588.98
2017-10-23T21:39:13.334Z,98594.23
2017-10-23T21:41:41.693Z,98596.84
2017-10-23T21:44:13.022Z,98594.75
2017-10-23T21:47:00.329Z,98601.63
2017-10-23T21:49:28.694Z,98599.06
2017-10-23T21:51:57.072Z,98594.38
2017-10-23T21:54:25.443Z,98600.39
2017-10-23T21:56:53.815Z,98602.52
2017-10-23T21:59:22.187Z,98601.66
2017-10-23T22:01:50.557Z,98604.19
2017-10-23T22:04:18.948Z,98605.03
2017-10-23T22:06:47.321Z,98609.75
2017-10-23T22:09:15.696Z,98615.75
2017-10-23T22:11:44.074Z,98617.05
2017-10-23T22:14:12.472Z,98613.20
2017-10-23T22:16:40.844Z,98616.21
2017-10-23T22:19:09.217Z,98623.45
2017-10-23T22:21:37.679Z,98621.33
2017-10-23T22:24:06.059Z,98621.22
2017-10-23T22:26:34.425Z,98627.27
2017-10-23T22:29:03.153Z,98621.42
2017-10-23T22:31:31.532Z,98618.95
2017-10-23T22:33:59.911Z,98618.59
2017-10-23T22:36:28.297Z,98619.77
2017-10-23T22:38:56.687Z,98628.28
2017-10-23T22:41:25.840Z,98625.31
2017-10-23T22:43:54.212Z,98619.81
2017-10-23T22:46:22.577Z,98623.23
2017-10-23T22:48:50.955Z,98622.23
2017-10-23T22:51:19.326Z,98617.53
2017-10-23T22:53:47.684Z,98621.37
2017-10-23T22:56:16.049Z,98623.88
2017-10-23T22:58:44.408Z,98628.17
2017-10-23T23:01:12.770Z,98628.14
2017-10-23T23:03:41.157Z,98632.83
2017-10-23T23:06:09.539Z,98638.75
2017-10-23T23:08:37.911Z,98645.80
2017-10-23T23:11:06.278Z,98646.01
2017-10-23T23:13:34.653Z,98646.11
2017-10-23T23:16:03.013Z,98654.23
2017-10-23T23:18:31.387Z,98652.17
2017-10-23T23:21:00.040Z,98658.11
2017-10-23T23:23:28.401Z,98650.92
2017-10-23T23:25:56.766Z,98659.48
2017-10-23T23:28:25.144Z,98657.29
2017-10-23T23:30:53.521Z,98654.73
2017-10-23T23:33:21.894Z,98659.36
2017-10-23T23:35:50.282Z,98660.14
2017-10-23T23:38:18.651Z,98652.93
2017-10-23T23:40:47.004Z,98650.83
2017-10-23T23:43:15.372Z,98653.51
2017-10-23T23:45:43.746Z,98648.00
2017-10-23T23:48:12.109Z,98648.53
2017-10-23T23:50:40.484Z,98656.26
2017-10-23T23:53:08.919Z,98656.20
2017-10-23T23:55:37.309Z,98657.97
2017-10-23T23:58:05.682Z,98657.06
